Edwardsville, Pennsylvania
Current Conditions -  °F | °C
As of 5:54 PM on Saturday 20 Dec 2014 (Local Time) from KAVP Reporting Station
Overcast Overcast  
Wind Chill: 24°   Ceiling: 2500
Heat Index: 30°   Visibility: 10mi
Dew Point: 20°   Wind: 6mph
Humidity: 66%   Direction: 320°NW
Pressure: 30.24"   Gusts: NA
Location:  41.2768°N, 75.8997°W
Report Text: KAVP 202254Z AUTO 32005KT 10SM OVC025 M01/M07 A3024 RMK AO2 SLP248 T10111067
Loading
Personal Weather Stations






























Interactive Weather Map New forecast layout! Learn more

10-Day Weather Forecast

Advertisements
Track Severe Weather on mobile